createdAt,value
2024-05-09T00:00:34.186Z,5.5
2024-05-09T00:01:50.482Z,5.3
2024-05-09T00:03:06.784Z,5.1
2024-05-09T00:04:23.067Z,5
2024-05-09T00:05:38.375Z,5.3
2024-05-09T00:06:54.633Z,4.9
2024-05-09T00:08:10.965Z,4.9
2024-05-09T00:09:27.231Z,4.9
2024-05-09T00:10:43.548Z,4.8
2024-05-09T00:11:59.805Z,4.6
2024-05-09T00:13:16.099Z,4.4
2024-05-09T00:14:32.399Z,4.4
2024-05-09T00:15:48.723Z,4.5
2024-05-09T00:17:05.017Z,4.3
2024-05-09T00:18:21.274Z,4.2
2024-05-09T00:19:37.606Z,4.3
2024-05-09T00:20:53.872Z,3.9
2024-05-09T00:22:09.224Z,4.6
2024-05-09T00:23:25.466Z,4.3
2024-05-09T00:24:41.760Z,4.5
2024-05-09T00:25:58.102Z,4.3
2024-05-09T00:27:14.345Z,4.1
2024-05-09T00:28:30.643Z,4.3
2024-05-09T00:29:46.947Z,4.3
2024-05-09T00:31:03.228Z,4.5
2024-05-09T00:32:19.531Z,4.3
2024-05-09T00:33:35.822Z,4.1
2024-05-09T00:34:52.125Z,4.3
2024-05-09T00:36:08.418Z,4.1
2024-05-09T00:37:24.696Z,4.6
2024-05-09T00:38:40.050Z,4.9
2024-05-09T00:39:56.301Z,4.7
2024-05-09T00:41:12.649Z,4.9
2024-05-09T00:42:28.939Z,4.8
2024-05-09T00:43:45.187Z,4.8
2024-05-09T00:45:01.477Z,4.8
2024-05-09T00:46:17.000Z,4.6
2024-05-09T00:47:34.077Z,4.9
2024-05-09T00:48:50.403Z,4.6
2024-05-09T00:50:06.667Z,5.2
2024-05-09T00:51:22.000Z,4.4
2024-05-09T00:52:39.291Z,5.1
2024-05-09T00:53:55.590Z,4.8
2024-05-09T00:55:10.847Z,4.6
2024-05-09T00:56:27.145Z,4.8
2024-05-09T00:57:43.450Z,4.8
2024-05-09T00:58:59.783Z,4.9
2024-05-09T01:00:16.021Z,4.9
2024-05-09T01:01:32.360Z,5.1
2024-05-09T01:02:47.645Z,4.7
2024-05-09T01:04:03.969Z,4.7
2024-05-09T01:05:20.262Z,5.4
2024-05-09T01:06:36.515Z,4.9
2024-05-09T01:07:52.826Z,4.7
2024-05-09T01:09:09.108Z,4.8
2024-05-09T01:10:25.402Z,4.7
2024-05-09T01:11:41.690Z,4.8
2024-05-09T01:12:57.982Z,4.8
2024-05-09T01:14:14.295Z,4.8
2024-05-09T01:15:30.577Z,4.7
2024-05-09T01:16:46.920Z,4.3
2024-05-09T01:18:03.161Z,4.8
2024-05-09T01:19:18.483Z,4.4
2024-05-09T01:20:34.818Z,4.6
2024-05-09T01:21:51.063Z,4.5
2024-05-09T01:23:07.372Z,4.6
2024-05-09T01:24:23.645Z,4.5
2024-05-09T01:25:39.958Z,4.5
2024-05-09T01:26:56.276Z,4.4
2024-05-09T01:28:12.542Z,4.4
2024-05-09T01:29:28.833Z,4.5
2024-05-09T01:30:45.162Z,4.5
2024-05-09T01:32:01.464Z,4.5
2024-05-09T01:33:17.760Z,4.3
2024-05-09T01:34:34.043Z,4.6
2024-05-09T01:35:49.312Z,4.5
2024-05-09T01:37:05.605Z,4
2024-05-09T01:38:21.898Z,4.5
2024-05-09T01:39:38.190Z,4.5
2024-05-09T01:40:54.486Z,4.5
2024-05-09T01:42:10.832Z,4.3
2024-05-09T01:43:27.071Z,4.3
2024-05-09T01:44:43.376Z,4.3
2024-05-09T01:45:59.678Z,4.1
2024-05-09T01:47:16.003Z,4.3
2024-05-09T01:48:32.247Z,4.5
2024-05-09T01:49:48.560Z,4.2
2024-05-09T01:51:04.850Z,4.4
2024-05-09T01:52:20.162Z,4.4
2024-05-09T01:53:36.444Z,4.2
2024-05-09T01:54:52.000Z,4.3
2024-05-09T01:56:09.089Z,4
2024-05-09T01:57:25.368Z,4.5
2024-05-09T01:58:41.614Z,4.6
2024-05-09T01:59:57.915Z,4.2
2024-05-09T02:01:14.218Z,4.3
2024-05-09T02:02:30.558Z,4.2
2024-05-09T02:03:46.849Z,4.2
2024-05-09T02:05:03.087Z,4.7
2024-05-09T02:06:19.439Z,4.1
2024-05-09T02:07:35.683Z,4.4
2024-05-09T02:08:51.037Z,4.4
2024-05-09T02:10:07.328Z,4.1
2024-05-09T02:11:23.571Z,4.3
2024-05-09T02:12:39.869Z,4.5
2024-05-09T02:13:56.163Z,4.1
2024-05-09T02:15:12.460Z,4
2024-05-09T02:16:28.800Z,4.1
2024-05-09T02:17:45.094Z,4.4
2024-05-09T02:19:01.340Z,4.2
2024-05-09T02:20:17.640Z,4.3
2024-05-09T02:21:33.924Z,4.1
2024-05-09T02:22:50.230Z,4
2024-05-09T02:24:06.531Z,4.3
2024-05-09T02:25:21.869Z,4.1
2024-05-09T02:26:38.123Z,3.9
2024-05-09T02:27:54.458Z,3.9
2024-05-09T02:29:10.722Z,4.2
2024-05-09T02:30:27.006Z,4.2
2024-05-09T02:31:43.309Z,4.5
2024-05-09T02:32:59.590Z,4
2024-05-09T02:34:15.883Z,4.1
2024-05-09T02:35:32.181Z,4.3
2024-05-09T02:36:48.479Z,4.2
2024-05-09T02:38:04.776Z,4.2
2024-05-09T02:39:21.078Z,4.4
2024-05-09T02:40:37.397Z,4.2
2024-05-09T02:41:52.664Z,4.3
2024-05-09T02:43:08.960Z,4.5
2024-05-09T02:44:25.303Z,4.2
2024-05-09T02:45:41.544Z,4.3
2024-05-09T02:46:57.887Z,4.2
2024-05-09T02:48:14.137Z,4.3
2024-05-09T02:49:30.431Z,4.1
2024-05-09T02:50:46.721Z,4.1
2024-05-09T02:52:03.010Z,4.2
2024-05-09T02:53:19.255Z,4.1
2024-05-09T02:54:35.569Z,4.2
2024-05-09T02:55:51.800Z,4.5
2024-05-09T02:57:08.051Z,4
2024-05-09T02:58:23.308Z,4.5
2024-05-09T02:59:39.642Z,3.7
2024-05-09T03:00:55.895Z,4.2
2024-05-09T03:02:12.190Z,4
2024-05-09T03:03:28.422Z,4.1
2024-05-09T03:04:44.672Z,4.3
2024-05-09T03:06:00.971Z,4.3
2024-05-09T03:07:17.167Z,4.2
2024-05-09T03:08:33.417Z,4.2
2024-05-09T03:09:49.693Z,4
2024-05-09T03:11:05.885Z,3.9
2024-05-09T03:12:22.170Z,4.2
2024-05-09T03:13:38.376Z,4
2024-05-09T03:14:53.674Z,4.6
2024-05-09T03:16:09.872Z,5.8
2024-05-09T03:17:26.117Z,6.8
2024-05-09T03:18:42.396Z,7.4
2024-05-09T03:19:58.643Z,6.9
2024-05-09T03:21:14.865Z,6.6
2024-05-09T03:22:31.124Z,6
2024-05-09T03:23:47.309Z,5.3
2024-05-09T03:25:03.594Z,5.9
2024-05-09T03:26:19.834Z,6.3
2024-05-09T03:27:36.069Z,5.8
2024-05-09T03:28:52.318Z,5
2024-05-09T03:30:08.517Z,4.8
2024-05-09T03:31:23.814Z,5.2
2024-05-09T03:32:40.008Z,5
2024-05-09T03:33:56.237Z,4.9
2024-05-09T03:35:12.534Z,4.6
2024-05-09T03:36:28.765Z,5.2
2024-05-09T03:37:44.964Z,5
2024-05-09T03:39:01.249Z,5.3
2024-05-09T03:40:17.489Z,5.2
2024-05-09T03:41:33.674Z,5
2024-05-09T03:42:49.924Z,5.4
2024-05-09T03:44:06.168Z,5.5
2024-05-09T03:45:22.397Z,5.7
2024-05-09T03:46:38.648Z,5.5
2024-05-09T03:47:53.902Z,5.1
2024-05-09T03:49:10.195Z,5.5
2024-05-09T03:50:26.371Z,5.5
2024-05-09T03:51:42.614Z,5.3
2024-05-09T03:52:58.857Z,5.4
2024-05-09T03:54:15.111Z,5.4
2024-05-09T03:55:31.337Z,5.3
2024-05-09T03:56:47.575Z,5.3
2024-05-09T03:58:03.817Z,5.6
2024-05-09T03:59:20.114Z,5.8
2024-05-09T04:00:36.348Z,5.6
2024-05-09T04:01:52.583Z,5.8
2024-05-09T04:03:08.791Z,5.4
2024-05-09T04:04:24.031Z,5.6
2024-05-09T04:05:40.333Z,5.6
2024-05-09T04:06:56.573Z,5.4
2024-05-09T04:08:12.749Z,5.9
2024-05-09T04:09:28.991Z,5.4
2024-05-09T04:10:45.233Z,5.5
2024-05-09T04:12:01.521Z,5.6
2024-05-09T04:13:17.761Z,5.6
2024-05-09T04:14:33.951Z,5.7
2024-05-09T04:15:50.204Z,5.9
2024-05-09T04:17:06.436Z,5.7
2024-05-09T04:18:22.720Z,5.6
2024-05-09T04:19:38.925Z,5.4
2024-05-09T04:20:54.180Z,5.4
2024-05-09T04:22:10.471Z,5.8
2024-05-09T04:23:26.695Z,5.7
2024-05-09T04:24:42.885Z,6.1
2024-05-09T04:25:59.145Z,5.7
2024-05-09T04:27:15.374Z,5.6
2024-05-09T04:28:31.618Z,6
2024-05-09T04:29:47.913Z,5.9
2024-05-09T04:31:04.086Z,5.7
2024-05-09T04:32:20.335Z,6
2024-05-09T04:33:36.565Z,6.5
2024-05-09T04:34:52.816Z,6.2
2024-05-09T04:36:09.057Z,5.9
2024-05-09T04:37:24.360Z,6.2
2024-05-09T04:38:40.546Z,6.1
2024-05-09T04:39:56.834Z,6.3
2024-05-09T04:41:13.040Z,5.6
2024-05-09T04:42:29.265Z,6.4
2024-05-09T04:43:45.565Z,5.9
2024-05-09T04:45:01.799Z,6.2
2024-05-09T04:46:17.996Z,6.1
2024-05-09T04:47:34.227Z,6.3
2024-05-09T04:48:50.526Z,6.3
2024-05-09T04:50:06.762Z,6.2
2024-05-09T04:51:22.946Z,6.3
2024-05-09T04:52:39.191Z,6.3
2024-05-09T04:53:54.454Z,5.9
2024-05-09T04:55:10.692Z,5.9
2024-05-09T04:56:26.917Z,6
2024-05-09T04:57:43.210Z,5.9
2024-05-09T04:58:59.411Z,6
2024-05-09T05:00:15.649Z,6.1
2024-05-09T05:01:31.896Z,6.2
2024-05-09T05:02:48.134Z,6.1
2024-05-09T05:04:04.373Z,5.9
2024-05-09T05:05:20.606Z,6.4
2024-05-09T05:06:36.889Z,6
2024-05-09T05:07:53.080Z,6
2024-05-09T05:09:09.320Z,6.4
2024-05-09T05:10:24.576Z,6
2024-05-09T05:11:40.827Z,6.1
2024-05-09T05:12:57.065Z,6.7
2024-05-09T05:14:13.295Z,6.4
2024-05-09T05:15:29.546Z,6.6
2024-05-09T05:16:45.785Z,6.6
2024-05-09T05:18:01.041Z,7
2024-05-09T05:19:17.288Z,6.6
2024-05-09T05:20:33.582Z,6.5
2024-05-09T05:21:49.808Z,6.4
2024-05-09T05:23:05.997Z,6.7
2024-05-09T05:24:22.237Z,6.7
2024-05-09T05:25:38.492Z,6.4
2024-05-09T05:26:54.722Z,6.6
2024-05-09T05:28:11.009Z,6.6
2024-05-09T05:29:27.198Z,6.8
2024-05-09T05:30:43.494Z,6.7
2024-05-09T05:31:59.692Z,6.3
2024-05-09T05:33:15.935Z,6.5
2024-05-09T05:35:48.519Z,6.9
2024-05-09T05:37:04.775Z,6.9
2024-05-09T05:38:20.997Z,6.6
2024-05-09T05:39:37.236Z,6.9
2024-05-09T05:40:53.538Z,6.7
2024-05-09T05:42:09.724Z,6.5
2024-05-09T05:43:26.027Z,6.3
2024-05-09T05:44:42.199Z,6.3
2024-05-09T05:45:58.442Z,6.3
2024-05-09T05:47:14.741Z,6.7
2024-05-09T05:48:30.925Z,6.4
2024-05-09T05:49:47.173Z,6.6
2024-05-09T05:51:02.477Z,6.6
2024-05-09T05:52:18.660Z,6.6
2024-05-09T05:53:34.903Z,6.6
2024-05-09T05:54:51.200Z,6.3
2024-05-09T05:56:07.383Z,6.5
2024-05-09T05:57:23.620Z,6.5
2024-05-09T05:58:39.855Z,6.4
2024-05-09T05:59:56.097Z,6.6
2024-05-09T06:01:12.392Z,6.4
2024-05-09T06:02:28.575Z,7
2024-05-09T06:03:44.823Z,7.1
2024-05-09T06:05:01.060Z,6.3
2024-05-09T06:06:17.295Z,6.7
2024-05-09T06:07:32.568Z,6.7
2024-05-09T06:08:48.804Z,6.4
2024-05-09T06:10:05.082Z,6.6
2024-05-09T06:11:21.274Z,6.8
2024-05-09T06:12:37.524Z,6.8
2024-05-09T06:13:53.752Z,6.5
2024-05-09T06:15:10.043Z,6.8
2024-05-09T06:16:26.289Z,6.9
2024-05-09T06:17:42.478Z,6.6
2024-05-09T06:18:58.717Z,6.6
2024-05-09T06:20:14.968Z,6.6
2024-05-09T06:21:31.196Z,6.7
2024-05-09T06:22:47.437Z,6.7
2024-05-09T06:24:02.000Z,6.9
2024-05-09T06:25:18.922Z,6.7
2024-05-09T06:26:35.168Z,6.4
2024-05-09T06:27:51.417Z,6.6
2024-05-09T06:30:23.888Z,6.3
2024-05-09T06:31:40.181Z,6.3
2024-05-09T06:32:56.418Z,6.1
2024-05-09T06:35:28.905Z,6.4
2024-05-09T06:36:45.085Z,6.4
2024-05-09T06:38:01.379Z,6.5
2024-05-09T06:39:17.619Z,5.8
2024-05-09T06:40:32.834Z,5.7
2024-05-09T06:41:49.117Z,5.8
2024-05-09T06:43:05.353Z,5.7
2024-05-09T06:44:21.539Z,6.4
2024-05-09T06:45:37.787Z,5.6
2024-05-09T06:46:54.028Z,5.8
2024-05-09T06:48:10.258Z,6.1
2024-05-09T06:49:26.512Z,6
2024-05-09T06:50:42.748Z,6.1
2024-05-09T06:51:59.029Z,5.8
2024-05-09T06:53:15.217Z,5.9
2024-05-09T06:54:31.528Z,6.1
2024-05-09T06:55:47.754Z,5.5
2024-05-09T06:57:02.955Z,5.5
2024-05-09T06:58:19.250Z,5.9
2024-05-09T06:59:35.493Z,5.5
2024-05-09T07:00:51.732Z,5.7
2024-05-09T07:02:07.980Z,5.4
2024-05-09T07:03:24.220Z,5.1
2024-05-09T07:04:40.403Z,5.3
2024-05-09T07:05:56.630Z,5.6
2024-05-09T07:07:12.887Z,5.4
2024-05-09T07:08:29.116Z,5.3
2024-05-09T07:09:45.363Z,5.2
2024-05-09T07:11:01.656Z,5.3
2024-05-09T07:12:17.889Z,4.9
2024-05-09T07:13:33.139Z,5.3
2024-05-09T07:14:49.324Z,4.8
2024-05-09T07:16:05.581Z,5.1
2024-05-09T07:17:21.861Z,4.7
2024-05-09T07:18:38.106Z,4.9
2024-05-09T07:19:54.285Z,4.5
2024-05-09T07:21:10.522Z,4.6
2024-05-09T07:22:26.770Z,4.7
2024-05-09T07:23:43.074Z,4.9
2024-05-09T07:24:59.248Z,4.3
2024-05-09T07:26:15.490Z,4.4
2024-05-09T07:27:31.736Z,4.6
2024-05-09T07:28:48.022Z,4.7
2024-05-09T07:30:03.237Z,4.7
2024-05-09T07:31:19.460Z,5.1
2024-05-09T07:32:35.769Z,4.3
2024-05-09T07:33:51.955Z,4.7
2024-05-09T07:35:08.249Z,4.7
2024-05-09T07:36:24.420Z,4.5
2024-05-09T07:37:40.659Z,4.4
2024-05-09T07:40:13.197Z,4.5
2024-05-09T07:41:29.439Z,4.2
2024-05-09T07:42:45.688Z,4.4
2024-05-09T07:44:01.858Z,4.5
2024-05-09T07:45:18.162Z,3.8
2024-05-09T07:46:33.358Z,3.8
2024-05-09T07:47:49.657Z,3.7
2024-05-09T07:49:05.836Z,4.1
2024-05-09T07:50:22.082Z,3.8
2024-05-09T07:51:38.309Z,3.7
2024-05-09T07:52:54.610Z,3.5
2024-05-09T07:54:10.798Z,3.6
2024-05-09T07:55:27.100Z,3.3
2024-05-09T07:56:43.270Z,3.1
2024-05-09T07:57:59.514Z,3
2024-05-09T07:59:15.820Z,3.4
2024-05-09T08:00:31.989Z,3.5
2024-05-09T08:01:48.239Z,3.5
2024-05-09T08:03:03.491Z,3.4
2024-05-09T08:04:19.727Z,3.7
2024-05-09T08:05:35.974Z,3.5
2024-05-09T08:06:52.275Z,3.7
2024-05-09T08:08:08.454Z,3.5
2024-05-09T08:09:24.694Z,3.6
2024-05-09T08:10:40.994Z,3.3
2024-05-09T08:11:57.159Z,3.4
2024-05-09T08:13:13.415Z,3
2024-05-09T08:14:29.646Z,3.3
2024-05-09T08:15:45.949Z,3.2
2024-05-09T08:17:02.180Z,3.2
2024-05-09T08:18:18.363Z,3.2
2024-05-09T08:19:33.690Z,3.1
2024-05-09T08:20:49.858Z,3.2
2024-05-09T08:22:06.098Z,3.2
2024-05-09T08:24:38.581Z,3.3
2024-05-09T08:25:54.818Z,3.8
2024-05-09T08:27:11.067Z,3.7
2024-05-09T08:29:43.593Z,3.4
2024-05-09T08:30:59.773Z,3.4
2024-05-09T08:32:16.026Z,3.8
2024-05-09T08:33:32.254Z,3.4
2024-05-09T08:34:48.499Z,3.8
2024-05-09T08:36:03.764Z,3.5
2024-05-09T08:37:20.054Z,3.6
2024-05-09T08:38:36.297Z,3
2024-05-09T08:39:52.467Z,3.7
2024-05-09T08:41:08.769Z,3.4
2024-05-09T08:42:24.943Z,2.8
2024-05-09T08:43:41.185Z,2.3
2024-05-09T08:44:57.496Z,2.6
2024-05-09T08:46:13.676Z,2.8
2024-05-09T08:47:29.905Z,3.4
2024-05-09T08:48:46.141Z,3.5
2024-05-09T08:50:02.451Z,3.8
2024-05-09T08:51:18.628Z,3.1
2024-05-09T08:52:33.948Z,3.2
2024-05-09T08:53:50.178Z,3.2
2024-05-09T08:55:06.355Z,2.8
2024-05-09T08:56:22.659Z,2.5
2024-05-09T08:57:38.845Z,2.9
2024-05-09T08:58:55.138Z,3
2024-05-09T09:00:11.320Z,3
2024-05-09T09:01:27.617Z,3.2
2024-05-09T09:02:43.796Z,3.2
2024-05-09T09:04:00.035Z,3.2
2024-05-09T09:05:16.279Z,3.3
2024-05-09T09:06:32.533Z,3.4
2024-05-09T09:07:48.826Z,3.1
2024-05-09T09:09:04.015Z,3.1
2024-05-09T09:10:20.255Z,2.9
2024-05-09T09:11:36.503Z,2.7
2024-05-09T09:12:52.807Z,2.5
2024-05-09T09:14:08.979Z,2.7
2024-05-09T09:15:25.278Z,2.6
2024-05-09T09:16:41.515Z,3
2024-05-09T09:17:57.695Z,3
2024-05-09T09:19:13.932Z,3.2
2024-05-09T09:20:30.234Z,3
2024-05-09T09:21:46.414Z,3.1
2024-05-09T09:23:02.711Z,2.8
2024-05-09T09:24:18.902Z,2.7
2024-05-09T09:25:34.161Z,2.8
2024-05-09T09:26:50.391Z,2.3
2024-05-09T09:28:06.697Z,2.5
2024-05-09T09:29:22.878Z,2.9
2024-05-09T09:30:39.119Z,3
2024-05-09T09:31:55.344Z,2.9
2024-05-09T09:33:10.676Z,2.7
2024-05-09T09:34:26.905Z,2.7
2024-05-09T09:35:43.159Z,2.8
2024-05-09T09:36:59.384Z,2.7
2024-05-09T09:38:15.567Z,3
2024-05-09T09:39:31.801Z,3
2024-05-09T09:40:48.045Z,2.9
2024-05-09T09:42:04.299Z,3
2024-05-09T09:43:20.520Z,3
2024-05-09T09:44:36.831Z,2.8
2024-05-09T09:47:09.241Z,3
2024-05-09T09:48:25.489Z,3.4
2024-05-09T09:49:40.744Z,3.1
2024-05-09T09:50:56.989Z,3.2
2024-05-09T09:52:13.289Z,3.3
2024-05-09T09:53:29.470Z,3.6
2024-05-09T09:54:45.758Z,3.1
2024-05-09T09:56:01.938Z,3.2
2024-05-09T09:57:18.244Z,3.2
2024-05-09T09:58:34.419Z,3
2024-05-09T09:59:50.649Z,3.1
2024-05-09T10:01:06.897Z,3.3
2024-05-09T10:02:23.201Z,3
2024-05-09T10:03:39.371Z,3.2
2024-05-09T10:04:55.616Z,3.4
2024-05-09T10:06:10.883Z,3.7
2024-05-09T10:07:27.122Z,3.7
2024-05-09T10:08:43.344Z,3.5
2024-05-09T10:09:59.586Z,3.7
2024-05-09T10:11:15.825Z,3.3
2024-05-09T10:12:32.069Z,4
2024-05-09T10:13:48.308Z,3.3
2024-05-09T10:15:04.561Z,3.6
2024-05-09T10:16:20.784Z,3.4
2024-05-09T10:17:37.097Z,3.3
2024-05-09T10:18:53.275Z,3.8
2024-05-09T10:20:09.507Z,3.4
2024-05-09T10:21:25.814Z,3.3
2024-05-09T10:23:57.304Z,3.1
2024-05-09T10:25:13.493Z,3.8
2024-05-09T10:26:29.718Z,3.3
2024-05-09T10:27:45.956Z,3.4
2024-05-09T10:29:02.197Z,3.4
2024-05-09T10:30:18.444Z,3.7
2024-05-09T10:31:34.760Z,3.7
2024-05-09T10:32:50.929Z,3.4
2024-05-09T10:34:07.235Z,3.3
2024-05-09T10:35:23.476Z,3.3
2024-05-09T10:36:39.700Z,3.5
2024-05-09T10:37:55.878Z,4
2024-05-09T10:39:11.194Z,3.8
2024-05-09T10:40:27.370Z,3.7
2024-05-09T10:41:43.609Z,3.5
2024-05-09T10:42:59.847Z,3.5
2024-05-09T10:44:16.092Z,3.5
2024-05-09T10:45:32.330Z,3.7
2024-05-09T10:46:48.645Z,3.7
2024-05-09T10:48:04.875Z,3.9
2024-05-09T10:49:21.055Z,3.6
2024-05-09T10:50:37.362Z,3.4
2024-05-09T10:51:53.524Z,3.3
2024-05-09T10:53:09.776Z,3.3
2024-05-09T10:54:26.078Z,3.2
2024-05-09T10:55:41.267Z,3.2
2024-05-09T10:56:57.502Z,3.6
2024-05-09T10:58:13.809Z,3.6
2024-05-09T10:59:29.991Z,3.3
2024-05-09T11:00:46.224Z,3.7
2024-05-09T11:02:02.457Z,4
2024-05-09T11:03:18.714Z,4
2024-05-09T11:04:34.935Z,4
2024-05-09T11:05:51.251Z,3.6
2024-05-09T11:07:07.435Z,3.5
2024-05-09T11:08:23.656Z,3.7
2024-05-09T11:09:39.913Z,4.2
2024-05-09T11:10:56.203Z,3.7
2024-05-09T11:12:11.398Z,3.8
2024-05-09T11:13:27.639Z,3.8
2024-05-09T11:14:43.869Z,4.2
2024-05-09T11:16:00.118Z,3.8
2024-05-09T11:17:16.425Z,4.2
2024-05-09T11:18:32.662Z,4
2024-05-09T11:19:48.910Z,3.4
2024-05-09T11:21:05.140Z,3.7
2024-05-09T11:22:21.307Z,4
2024-05-09T11:23:37.554Z,3.6
2024-05-09T11:24:53.863Z,3.6
2024-05-09T11:26:10.112Z,3.8
2024-05-09T11:27:26.354Z,3.7
2024-05-09T11:28:41.529Z,4.1
2024-05-09T11:29:57.771Z,4.1
2024-05-09T11:31:14.003Z,3.9
2024-05-09T11:32:30.247Z,3.5
2024-05-09T11:33:46.554Z,3.8
2024-05-09T11:35:02.726Z,3.7
2024-05-09T11:36:18.973Z,4.1
2024-05-09T11:37:35.290Z,3.7
2024-05-09T11:38:51.439Z,3.5
2024-05-09T11:40:07.687Z,3.9
2024-05-09T11:41:23.928Z,3.8
2024-05-09T11:42:40.166Z,3.9
2024-05-09T11:43:56.399Z,3.8
2024-05-09T11:45:11.656Z,3.8
2024-05-09T11:46:27.900Z,4.4
2024-05-09T11:47:44.219Z,4.1
2024-05-09T11:49:00.449Z,3.8
2024-05-09T11:50:16.700Z,3.6
2024-05-09T11:51:32.941Z,3.9
2024-05-09T11:52:49.092Z,3.8
2024-05-09T11:54:05.342Z,3.7
2024-05-09T11:55:21.576Z,3.8
2024-05-09T11:56:37.829Z,3.6
2024-05-09T11:57:54.070Z,3.6
2024-05-09T11:59:10.378Z,4.2
2024-05-09T12:00:26.615Z,3.7
2024-05-09T12:01:41.803Z,3.8
2024-05-09T12:02:58.041Z,4.2
2024-05-09T12:04:14.284Z,3.9
2024-05-09T12:05:30.503Z,3.9
2024-05-09T12:06:46.823Z,3.9
2024-05-09T12:08:02.985Z,4
2024-05-09T12:09:19.234Z,4.2
2024-05-09T12:10:35.540Z,3.9
2024-05-09T12:11:51.790Z,4.1
2024-05-09T12:13:07.954Z,3.6
2024-05-09T12:14:24.276Z,4
2024-05-09T12:15:40.495Z,3.7
2024-05-09T12:18:12.912Z,3.8
2024-05-09T12:19:28.170Z,3.9
2024-05-09T12:20:44.399Z,3.9
2024-05-09T12:22:00.654Z,3.9
2024-05-09T12:24:33.127Z,4.1
2024-05-09T12:25:49.364Z,3.5
2024-05-09T12:27:05.674Z,3.9
2024-05-09T12:28:21.914Z,3.6
2024-05-09T12:29:38.089Z,3.2
2024-05-09T12:30:54.345Z,3.4
2024-05-09T12:32:10.000Z,3.2
2024-05-09T12:33:26.000Z,3.2
2024-05-09T12:34:43.039Z,3.4
2024-05-09T12:35:58.300Z,3.5
2024-05-09T12:37:14.544Z,3.6
2024-05-09T12:38:30.783Z,3.7
2024-05-09T12:39:47.012Z,3.3
2024-05-09T12:41:03.254Z,3.6
2024-05-09T12:42:19.518Z,3.4
2024-05-09T12:43:35.736Z,3.5
2024-05-09T12:44:52.003Z,3.5
2024-05-09T12:46:08.226Z,3.9
2024-05-09T12:47:24.453Z,3.2
2024-05-09T12:48:40.692Z,3.4
2024-05-09T12:49:56.935Z,3.3
2024-05-09T12:51:13.183Z,3.6
2024-05-09T12:52:28.423Z,3.4
2024-05-09T12:53:44.676Z,3.3
2024-05-09T12:55:00.917Z,3.4
2024-05-09T12:56:17.138Z,3.3
2024-05-09T12:57:33.384Z,3.4
2024-05-09T12:58:49.659Z,3.4
2024-05-09T13:00:05.890Z,3.2
2024-05-09T13:01:22.100Z,3.1
2024-05-09T13:02:38.347Z,3.3
2024-05-09T13:03:54.593Z,3
2024-05-09T13:05:10.855Z,3
2024-05-09T13:06:27.055Z,2.8
2024-05-09T13:07:43.297Z,2.8
2024-05-09T13:08:58.551Z,3
2024-05-09T13:10:14.789Z,3.1
2024-05-09T13:11:31.035Z,2.9
2024-05-09T13:12:47.285Z,3.1
2024-05-09T13:14:03.527Z,2.8
2024-05-09T13:15:19.783Z,2.7
2024-05-09T13:16:36.018Z,2.9
2024-05-09T13:17:52.245Z,3.1
2024-05-09T13:19:08.502Z,2.7
2024-05-09T13:20:24.705Z,2.8
2024-05-09T13:21:40.982Z,2.9
2024-05-09T13:22:57.185Z,2.9
2024-05-09T13:24:13.464Z,3.1
2024-05-09T13:25:28.722Z,3.1
2024-05-09T13:26:44.920Z,2.9
2024-05-09T13:28:01.173Z,3.2
2024-05-09T13:29:17.398Z,2.7
2024-05-09T13:30:33.656Z,2.8
2024-05-09T13:31:49.879Z,3.1
2024-05-09T13:33:06.129Z,3.1
2024-05-09T13:34:22.393Z,3.8
2024-05-09T13:35:38.610Z,3.1
2024-05-09T13:36:54.867Z,3.2
2024-05-09T13:38:11.119Z,2.8
2024-05-09T13:39:27.324Z,3
2024-05-09T13:40:43.567Z,3
2024-05-09T13:41:59.930Z,2.6
2024-05-09T13:43:16.198Z,2.9
2024-05-09T13:44:32.402Z,3
2024-05-09T13:45:48.654Z,2.8
2024-05-09T13:47:04.892Z,2.7
2024-05-09T13:48:20.138Z,2.8
2024-05-09T13:49:36.380Z,2.6
2024-05-09T13:50:52.616Z,3
2024-05-09T13:52:08.889Z,3.1
2024-05-09T13:53:25.139Z,2.6
2024-05-09T13:54:41.347Z,2.5
2024-05-09T13:55:57.604Z,2.9
2024-05-09T13:57:13.843Z,2.7
2024-05-09T13:58:30.060Z,2.9
2024-05-09T13:59:46.297Z,3.2
2024-05-09T14:01:02.541Z,2.8
2024-05-09T14:02:18.771Z,3.1
2024-05-09T14:03:35.018Z,2.9
2024-05-09T14:04:51.375Z,2.9
2024-05-09T14:06:07.629Z,2.6
2024-05-09T14:07:23.884Z,2.9
2024-05-09T14:08:40.101Z,2.6
2024-05-09T14:09:56.343Z,2.6
2024-05-09T14:11:12.572Z,2.7
2024-05-09T14:12:28.827Z,2.8
2024-05-09T14:13:45.086Z,3
2024-05-09T14:15:01.332Z,3
2024-05-09T14:16:17.561Z,3
2024-05-09T14:17:33.769Z,2.9
2024-05-09T14:18:50.008Z,2.8
2024-05-09T14:20:06.261Z,3.1
2024-05-09T14:21:21.507Z,2.9
2024-05-09T14:22:37.781Z,2.8
2024-05-09T14:23:53.990Z,3
2024-05-09T14:25:10.231Z,3.3
2024-05-09T14:26:26.462Z,2.8
2024-05-09T14:27:42.736Z,2.8
2024-05-09T14:28:58.956Z,2.7
2024-05-09T14:30:15.183Z,2.7
2024-05-09T14:31:31.425Z,2.9
2024-05-09T14:32:47.678Z,2.9
2024-05-09T14:34:03.917Z,2.6
2024-05-09T14:35:20.170Z,2.9
2024-05-09T14:36:36.380Z,2.7
2024-05-09T14:37:52.748Z,3
2024-05-09T14:39:09.012Z,2.9
2024-05-09T14:40:25.231Z,2.7
2024-05-09T14:41:41.465Z,2.9
2024-05-09T14:42:57.715Z,2.6
2024-05-09T14:44:13.937Z,2.9
2024-05-09T14:45:30.190Z,3.1
2024-05-09T14:46:46.435Z,2.4
2024-05-09T14:48:02.705Z,2.4
2024-05-09T14:49:18.909Z,2.7
2024-05-09T14:50:35.172Z,2.6
2024-05-09T14:51:51.386Z,2.5
2024-05-09T14:53:07.627Z,2.5
2024-05-09T14:54:22.889Z,2.5
2024-05-09T14:55:39.108Z,2.4
2024-05-09T14:56:55.356Z,2.7
2024-05-09T14:58:11.599Z,2.9
2024-05-09T14:59:27.872Z,2.5
2024-05-09T15:00:44.104Z,2.4
2024-05-09T15:02:00.343Z,2.4
2024-05-09T15:03:16.577Z,2.6
2024-05-09T15:04:32.831Z,2.3
2024-05-09T15:05:49.060Z,2.6
2024-05-09T15:07:05.303Z,2.4
2024-05-09T15:08:21.531Z,2.3
2024-05-09T15:09:37.791Z,2.2
2024-05-09T15:10:54.145Z,2.6
2024-05-09T15:12:10.370Z,2.4
2024-05-09T15:13:26.621Z,2.5
2024-05-09T15:14:42.866Z,2.5
2024-05-09T15:15:59.101Z,2.5
2024-05-09T15:17:15.331Z,2.4
2024-05-09T15:18:31.573Z,2.6
2024-05-09T15:19:47.822Z,2.9
2024-05-09T15:21:04.058Z,2.4
2024-05-09T15:22:20.299Z,2.4
2024-05-09T15:23:36.541Z,2.4
2024-05-09T15:24:52.777Z,2.3
2024-05-09T15:26:09.024Z,2.5
2024-05-09T15:28:40.502Z,2.6
2024-05-09T15:29:56.746Z,2.3
2024-05-09T15:31:12.980Z,2.3
2024-05-09T15:32:29.224Z,2.3
2024-05-09T15:33:45.460Z,2.4
2024-05-09T15:35:01.706Z,2.5
2024-05-09T15:36:17.952Z,2.3
2024-05-09T15:37:34.195Z,2.6
2024-05-09T15:38:50.439Z,2.6
2024-05-09T15:40:06.675Z,2.5
2024-05-09T15:41:22.901Z,2.7
2024-05-09T15:42:39.153Z,2.7
2024-05-09T15:43:54.414Z,2.6
2024-05-09T15:45:10.640Z,2.7
2024-05-09T15:46:26.883Z,2.7
2024-05-09T15:47:43.126Z,2.5
2024-05-09T15:48:59.361Z,2.6
2024-05-09T15:50:15.000Z,2.6
2024-05-09T15:51:31.846Z,2.5
2024-05-09T15:52:48.087Z,2.5
2024-05-09T15:54:04.323Z,3.6
2024-05-09T15:55:20.562Z,2.6
2024-05-09T15:56:36.798Z,2.7
2024-05-09T15:57:53.035Z,2.9
2024-05-09T15:59:09.271Z,2.3
2024-05-09T16:00:24.551Z,2.5
2024-05-09T16:01:40.769Z,2.5
2024-05-09T16:02:57.021Z,2.3
2024-05-09T16:04:13.268Z,2.2
2024-05-09T16:05:29.502Z,2.4
2024-05-09T16:06:45.751Z,2.4
2024-05-09T16:08:01.984Z,2.4
2024-05-09T16:09:18.207Z,2.2
2024-05-09T16:10:34.000Z,2.5
2024-05-09T16:11:50.683Z,2.7
2024-05-09T16:13:06.929Z,3
2024-05-09T16:14:23.167Z,3.4
2024-05-09T16:15:39.407Z,3.3
2024-05-09T16:16:54.674Z,3.1
2024-05-09T16:18:10.911Z,2.8
2024-05-09T16:19:27.150Z,5.2
2024-05-09T16:20:43.376Z,4.2
2024-05-09T16:21:59.629Z,2.7
2024-05-09T16:23:15.864Z,3.1
2024-05-09T16:24:32.110Z,2.8
2024-05-09T16:25:48.342Z,2.7
2024-05-09T16:27:04.587Z,2.8
2024-05-09T16:28:20.821Z,2.6
2024-05-09T16:29:37.075Z,2.5
2024-05-09T16:32:09.532Z,2.4
2024-05-09T16:33:24.803Z,2.7
2024-05-09T16:34:41.030Z,2.7
2024-05-09T16:35:57.281Z,3.2
2024-05-09T16:37:13.518Z,3.2
2024-05-09T16:38:29.746Z,2.4
2024-05-09T16:39:46.007Z,2.4
2024-05-09T16:41:02.238Z,2.5
2024-05-09T16:42:18.477Z,2.7
2024-05-09T16:43:34.714Z,2.4
2024-05-09T16:44:50.961Z,2.5
2024-05-09T16:46:07.191Z,2.6
2024-05-09T16:47:23.443Z,2.5
2024-05-09T16:48:39.668Z,2.4
2024-05-09T16:49:54.920Z,2.3
2024-05-09T16:51:11.163Z,2.5
2024-05-09T16:52:27.409Z,2.4
2024-05-09T16:53:43.643Z,2.8
2024-05-09T16:54:59.882Z,2.6
2024-05-09T16:56:16.000Z,2.6
2024-05-09T16:57:32.375Z,2.6
2024-05-09T16:58:48.610Z,2.6
2024-05-09T17:00:04.835Z,2.7
2024-05-09T17:01:21.083Z,2.4
2024-05-09T17:02:37.328Z,2.4
2024-05-09T17:03:53.584Z,2.5
2024-05-09T17:05:09.804Z,2.5
2024-05-09T17:06:25.050Z,2.6
2024-05-09T17:07:41.303Z,2.5
2024-05-09T17:08:57.556Z,2.6
2024-05-09T17:10:13.771Z,3
2024-05-09T17:11:30.030Z,2.8
2024-05-09T17:12:46.260Z,3.3
2024-05-09T17:14:02.500Z,2.8
2024-05-09T17:15:18.737Z,2.6
2024-05-09T17:16:34.968Z,2.4
2024-05-09T17:17:51.215Z,3.6
2024-05-09T17:19:07.453Z,2.9
2024-05-09T17:20:23.704Z,3.3
2024-05-09T17:21:39.927Z,3.7
2024-05-09T17:22:55.198Z,3.1
2024-05-09T17:24:11.439Z,2.8
2024-05-09T17:25:27.678Z,2.4
2024-05-09T17:26:43.909Z,2.4
2024-05-09T17:28:00.145Z,2.5
2024-05-09T17:29:16.383Z,2.3
2024-05-09T17:30:32.624Z,2.5
2024-05-09T17:31:48.888Z,2.3
2024-05-09T17:33:05.109Z,2.5
2024-05-09T17:34:21.339Z,2.4
2024-05-09T17:35:37.597Z,2.4
2024-05-09T17:36:53.816Z,2.6
2024-05-09T17:38:10.060Z,2.7
2024-05-09T17:39:25.317Z,2.7
2024-05-09T17:40:41.561Z,2.8
2024-05-09T17:41:57.795Z,2.9
2024-05-09T17:43:14.046Z,3
2024-05-09T17:44:30.283Z,3
2024-05-09T17:45:46.532Z,2.9
2024-05-09T17:47:02.747Z,3.2
2024-05-09T17:48:19.009Z,3.1
2024-05-09T17:49:35.235Z,3